Sparta, WI (54656)

1:07 PM CDT on July 30, 2016 (GMT -0500)
Sparta-Fort McCoy | | Change Station

Elev 837 ft 43.96 °N, 90.74 °W | Updated 12 minutes ago

Overcast
Overcast
78 °F
Feels Like 78 °F
N
6
Wind Variable Wind from East

Today
High -- | Low -- °F
--% Chance of Precip.
Yesterday
High -- | Low -- °F
Precip. -- in
Pressure 30.05 in
Visibility 10.0 miles
Clouds Scattered Clouds 3900 ft
Mostly Cloudy 6000 ft
Overcast 10000 ft
Dew Point 62 °F
Humidity 58%
Rainfall 0.00 in
Snow Depth Not available.
5:49 AM 8:28 PM
Waning Crescent, 12% visible
METAR KCMY 301755Z AUTO 10005KT 10SM SCT039 BKN060 OVC100 25/17 A3005 RMK AO2 T02530165 10259 20166
Pressure 30.05 in
Visibility 10.0 miles
Clouds Scattered Clouds 3900 ft
Mostly Cloudy 6000 ft
Overcast 10000 ft
Dew Point 62 °F
Humidity 58%
Rainfall 0.00 in
Snow Depth Not available.
5:49 AM 8:28 PM
Waning Crescent, 12% visible
METAR KCMY 301755Z AUTO 10005KT 10SM SCT039 BKN060 OVC100 25/17 A3005 RMK AO2 T02530165 10259 20166

10-Day Weather Forecast

Almanac

Astronomy

Jul. 30, 2016 Rise Set
Actual Time
Civil Twilight
Nautical Twilight
Astronomical Twilight
Moon
Length of Visible Light
Length of Day
Tomorrow will be .
, % of the Moon is Illuminated

Today's Extremes

State Highs State Lows

Community

WunderPhotos

Upload Photos

1,928,600 photos uploaded!

WunderBlog® & News

Nearby

Air Quality

  Air Quality AQ Index Pollutant
Not available.

Snow Depth

Station Depth Elevation

Earthquake Activity

City Distance Mag. Time & Date
Minimum magnitude displayed is 2.5.

Coastal Water Temperatures

Place Temperature

Stations

Nearby Weather Stations

Station Location Temp. Windchill Dew Point Humidity Wind Precip. Elev Updated Type
                   

Watches & Warnings

There are currently no watches in effect.